sensor_id;sensor_type;location;lat;lon;timestamp;P1;durP1;ratioP1;P2;durP2;ratioP2
18102;SDS011;9178;51.120;6.192;2022-11-15T00:01:07;13.67;;;9.57;;
18102;SDS011;9178;51.120;6.192;2022-11-15T00:03:34;13.73;;;9.43;;
18102;SDS011;9178;51.120;6.192;2022-11-15T00:06:01;13.57;;;10.10;;
18102;SDS011;9178;51.120;6.192;2022-11-15T00:08:29;15.43;;;10.17;;
18102;SDS011;9178;51.120;6.192;2022-11-15T00:10:58;13.43;;;10.00;;
18102;SDS011;9178;51.120;6.192;2022-11-15T00:13:26;13.30;;;9.87;;
18102;SDS011;9178;51.120;6.192;2022-11-15T00:15:56;13.47;;;9.80;;
18102;SDS011;9178;51.120;6.192;2022-11-15T00:18:23;14.77;;;10.13;;
18102;SDS011;9178;51.120;6.192;2022-11-15T00:20:50;15.87;;;10.57;;
18102;SDS011;9178;51.120;6.192;2022-11-15T00:23:17;13.30;;;9.30;;
18102;SDS011;9178;51.120;6.192;2022-11-15T00:25:44;11.97;;;9.37;;
18102;SDS011;9178;51.120;6.192;2022-11-15T00:28:12;12.83;;;10.00;;
18102;SDS011;9178;51.120;6.192;2022-11-15T00:30:39;12.53;;;9.53;;
18102;SDS011;9178;51.120;6.192;2022-11-15T00:33:06;12.00;;;9.20;;
18102;SDS011;9178;51.120;6.192;2022-11-15T00:35:33;13.57;;;9.70;;
18102;SDS011;9178;51.120;6.192;2022-11-15T00:38:01;15.40;;;10.13;;
18102;SDS011;9178;51.120;6.192;2022-11-15T00:40:28;14.77;;;10.17;;
18102;SDS011;9178;51.120;6.192;2022-11-15T00:42:55;14.17;;;9.67;;
18102;SDS011;9178;51.120;6.192;2022-11-15T00:45:24;15.43;;;9.70;;
18102;SDS011;9178;51.120;6.192;2022-11-15T00:47:51;11.33;;;8.37;;
18102;SDS011;9178;51.120;6.192;2022-11-15T00:50:18;11.77;;;8.73;;
18102;SDS011;9178;51.120;6.192;2022-11-15T00:52:45;11.57;;;8.00;;
18102;SDS011;9178;51.120;6.192;2022-11-15T00:55:13;14.30;;;9.60;;
18102;SDS011;9178;51.120;6.192;2022-11-15T00:57:41;12.53;;;8.57;;
18102;SDS011;9178;51.120;6.192;2022-11-15T01:00:08;14.40;;;9.30;;
18102;SDS011;9178;51.120;6.192;2022-11-15T01:02:36;11.70;;;8.57;;
18102;SDS011;9178;51.120;6.192;2022-11-15T01:05:03;13.90;;;8.83;;
18102;SDS011;9178;51.120;6.192;2022-11-15T01:07:31;12.13;;;9.07;;
18102;SDS011;9178;51.120;6.192;2022-11-15T01:09:58;11.87;;;8.63;;
18102;SDS011;9178;51.120;6.192;2022-11-15T01:12:24;12.87;;;9.03;;
18102;SDS011;9178;51.120;6.192;2022-11-15T01:14:51;12.93;;;8.90;;
18102;SDS011;9178;51.120;6.192;2022-11-15T01:17:18;12.13;;;9.30;;
18102;SDS011;9178;51.120;6.192;2022-11-15T01:19:46;12.17;;;9.63;;
18102;SDS011;9178;51.120;6.192;2022-11-15T01:22:13;13.37;;;9.40;;
18102;SDS011;9178;51.120;6.192;2022-11-15T01:24:40;13.63;;;9.30;;
18102;SDS011;9178;51.120;6.192;2022-11-15T01:27:06;11.93;;;9.13;;
18102;SDS011;9178;51.120;6.192;2022-11-15T01:29:33;11.73;;;9.17;;
18102;SDS011;9178;51.120;6.192;2022-11-15T01:32:00;13.67;;;9.50;;
18102;SDS011;9178;51.120;6.192;2022-11-15T01:34:27;14.47;;;8.50;;
18102;SDS011;9178;51.120;6.192;2022-11-15T01:36:55;10.40;;;8.07;;
18102;SDS011;9178;51.120;6.192;2022-11-15T01:39:22;12.53;;;9.07;;
18102;SDS011;9178;51.120;6.192;2022-11-15T01:41:49;9.07;;;7.83;;
18102;SDS011;9178;51.120;6.192;2022-11-15T01:44:37;10.60;;;8.17;;
18102;SDS011;9178;51.120;6.192;2022-11-15T01:47:06;11.53;;;7.80;;
18102;SDS011;9178;51.120;6.192;2022-11-15T01:49:37;9.73;;;7.60;;
18102;SDS011;9178;51.120;6.192;2022-11-15T01:52:09;9.60;;;7.63;;
18102;SDS011;9178;51.120;6.192;2022-11-15T01:54:39;10.53;;;7.67;;
18102;SDS011;9178;51.120;6.192;2022-11-15T01:57:06;9.80;;;7.53;;
18102;SDS011;9178;51.120;6.192;2022-11-15T01:59:35;10.27;;;7.50;;
18102;SDS011;9178;51.120;6.192;2022-11-15T02:02:03;12.13;;;7.17;;
18102;SDS011;9178;51.120;6.192;2022-11-15T02:04:30;9.33;;;7.53;;
18102;SDS011;9178;51.120;6.192;2022-11-15T02:06:58;11.00;;;7.37;;
18102;SDS011;9178;51.120;6.192;2022-11-15T02:09:29;9.07;;;6.93;;
18102;SDS011;9178;51.120;6.192;2022-11-15T02:11:56;8.27;;;7.13;;
18102;SDS011;9178;51.120;6.192;2022-11-15T02:14:23;8.90;;;7.40;;
18102;SDS011;9178;51.120;6.192;2022-11-15T02:16:54;11.93;;;7.77;;
18102;SDS011;9178;51.120;6.192;2022-11-15T02:19:31;10.80;;;7.17;;
18102;SDS011;9178;51.120;6.192;2022-11-15T02:22:14;11.73;;;7.40;;
18102;SDS011;9178;51.120;6.192;2022-11-15T02:28:04;11.83;;;8.43;;
18102;SDS011;9178;51.120;6.192;2022-11-15T02:30:42;11.33;;;8.60;;
18102;SDS011;9178;51.120;6.192;2022-11-15T02:33:14;11.17;;;8.17;;
18102;SDS011;9178;51.120;6.192;2022-11-15T02:35:52;11.60;;;7.97;;
18102;SDS011;9178;51.120;6.192;2022-11-15T02:38:27;14.43;;;7.90;;
18102;SDS011;9178;51.120;6.192;2022-11-15T02:41:01;12.07;;;8.13;;
18102;SDS011;9178;51.120;6.192;2022-11-15T02:43:33;9.87;;;7.20;;
18102;SDS011;9178;51.120;6.192;2022-11-15T02:46:23;10.23;;;7.03;;
18102;SDS011;9178;51.120;6.192;2022-11-15T02:49:08;8.70;;;7.10;;
18102;SDS011;9178;51.120;6.192;2022-11-15T02:51:36;9.67;;;7.33;;
18102;SDS011;9178;51.120;6.192;2022-11-15T02:54:03;10.77;;;7.80;;
18102;SDS011;9178;51.120;6.192;2022-11-15T02:56:30;9.90;;;7.90;;
18102;SDS011;9178;51.120;6.192;2022-11-15T02:59:01;9.43;;;7.10;;
18102;SDS011;9178;51.120;6.192;2022-11-15T03:01:52;9.90;;;7.20;;
18102;SDS011;9178;51.120;6.192;2022-11-15T03:04:32;8.83;;;6.87;;
18102;SDS011;9178;51.120;6.192;2022-11-15T03:07:08;10.87;;;7.43;;
18102;SDS011;9178;51.120;6.192;2022-11-15T03:09:41;12.73;;;7.87;;
18102;SDS011;9178;51.120;6.192;2022-11-15T03:12:14;10.17;;;7.40;;
18102;SDS011;9178;51.120;6.192;2022-11-15T03:14:51;11.30;;;7.10;;
18102;SDS011;9178;51.120;6.192;2022-11-15T03:17:25;9.20;;;7.60;;
18102;SDS011;9178;51.120;6.192;2022-11-15T03:19:55;9.27;;;7.80;;
18102;SDS011;9178;51.120;6.192;2022-11-15T03:22:24;10.70;;;7.60;;
18102;SDS011;9178;51.120;6.192;2022-11-15T03:24:56;11.67;;;7.73;;
18102;SDS011;9178;51.120;6.192;2022-11-15T03:27:27;10.20;;;7.57;;
18102;SDS011;9178;51.120;6.192;2022-11-15T03:29:59;9.90;;;7.57;;
18102;SDS011;9178;51.120;6.192;2022-11-15T03:32:29;8.93;;;7.57;;
18102;SDS011;9178;51.120;6.192;2022-11-15T03:34:58;9.53;;;7.40;;
18102;SDS011;9178;51.120;6.192;2022-11-15T03:37:30;10.93;;;7.40;;
18102;SDS011;9178;51.120;6.192;2022-11-15T03:40:00;8.70;;;7.30;;
18102;SDS011;9178;51.120;6.192;2022-11-15T03:42:28;9.23;;;7.37;;
18102;SDS011;9178;51.120;6.192;2022-11-15T03:44:58;9.10;;;7.33;;
18102;SDS011;9178;51.120;6.192;2022-11-15T03:47:30;10.97;;;7.10;;
18102;SDS011;9178;51.120;6.192;2022-11-15T03:50:01;9.53;;;7.73;;
18102;SDS011;9178;51.120;6.192;2022-11-15T03:52:33;10.97;;;7.80;;
18102;SDS011;9178;51.120;6.192;2022-11-15T03:55:01;9.67;;;7.80;;
18102;SDS011;9178;51.120;6.192;2022-11-15T03:57:30;11.13;;;7.17;;
18102;SDS011;9178;51.120;6.192;2022-11-15T03:59:57;9.87;;;7.17;;
18102;SDS011;9178;51.120;6.192;2022-11-15T04:02:23;11.77;;;7.70;;
18102;SDS011;9178;51.120;6.192;2022-11-15T04:04:52;9.00;;;7.23;;
18102;SDS011;9178;51.120;6.192;2022-11-15T04:07:18;8.13;;;6.90;;
18102;SDS011;9178;51.120;6.192;2022-11-15T04:09:45;12.83;;;7.70;;
18102;SDS011;9178;51.120;6.192;2022-11-15T04:12:30;9.90;;;7.20;;
18102;SDS011;9178;51.120;6.192;2022-11-15T04:14:59;8.07;;;6.70;;
18102;SDS011;9178;51.120;6.192;2022-11-15T04:17:36;8.47;;;6.97;;
18102;SDS011;9178;51.120;6.192;2022-11-15T04:20:07;9.73;;;7.20;;
18102;SDS011;9178;51.120;6.192;2022-11-15T04:22:53;7.63;;;6.83;;
18102;SDS011;9178;51.120;6.192;2022-11-15T04:25:38;9.50;;;6.60;;
18102;SDS011;9178;51.120;6.192;2022-11-15T04:28:05;10.67;;;6.90;;
18102;SDS011;9178;51.120;6.192;2022-11-15T04:30:32;9.17;;;6.63;;
18102;SDS011;9178;51.120;6.192;2022-11-15T04:32:59;9.47;;;7.27;;
18102;SDS011;9178;51.120;6.192;2022-11-15T04:35:28;9.67;;;6.70;;
18102;SDS011;9178;51.120;6.192;2022-11-15T04:37:55;8.30;;;6.70;;
18102;SDS011;9178;51.120;6.192;2022-11-15T04:40:21;10.83;;;6.70;;
18102;SDS011;9178;51.120;6.192;2022-11-15T04:42:48;9.13;;;6.63;;
18102;SDS011;9178;51.120;6.192;2022-11-15T04:45:15;8.80;;;6.93;;
18102;SDS011;9178;51.120;6.192;2022-11-15T04:47:42;10.73;;;7.40;;
18102;SDS011;9178;51.120;6.192;2022-11-15T04:50:10;9.27;;;7.30;;
18102;SDS011;9178;51.120;6.192;2022-11-15T04:52:39;8.03;;;6.83;;
18102;SDS011;9178;51.120;6.192;2022-11-15T04:55:07;8.47;;;6.77;;
18102;SDS011;9178;51.120;6.192;2022-11-15T04:57:34;7.83;;;6.80;;
18102;SDS011;9178;51.120;6.192;2022-11-15T05:00:01;9.20;;;6.60;;
18102;SDS011;9178;51.120;6.192;2022-11-15T05:02:29;8.93;;;6.60;;
18102;SDS011;9178;51.120;6.192;2022-11-15T05:05:16;8.17;;;6.53;;
18102;SDS011;9178;51.120;6.192;2022-11-15T05:07:43;9.13;;;6.87;;
18102;SDS011;9178;51.120;6.192;2022-11-15T05:10:10;9.43;;;7.13;;
18102;SDS011;9178;51.120;6.192;2022-11-15T05:12:37;9.93;;;6.23;;
18102;SDS011;9178;51.120;6.192;2022-11-15T05:15:04;8.50;;;6.03;;
18102;SDS011;9178;51.120;6.192;2022-11-15T05:17:32;8.37;;;5.93;;
18102;SDS011;9178;51.120;6.192;2022-11-15T05:19:59;9.57;;;6.50;;
18102;SDS011;9178;51.120;6.192;2022-11-15T05:22:25;6.77;;;6.03;;
18102;SDS011;9178;51.120;6.192;2022-11-15T05:24:54;7.30;;;6.27;;
18102;SDS011;9178;51.120;6.192;2022-11-15T05:27:21;8.33;;;6.13;;
18102;SDS011;9178;51.120;6.192;2022-11-15T05:29:47;7.50;;;6.20;;
18102;SDS011;9178;51.120;6.192;2022-11-15T05:32:14;9.13;;;6.27;;
18102;SDS011;9178;51.120;6.192;2022-11-15T05:34:43;8.47;;;5.67;;
18102;SDS011;9178;51.120;6.192;2022-11-15T05:37:11;6.60;;;5.90;;
18102;SDS011;9178;51.120;6.192;2022-11-15T05:39:38;6.60;;;5.23;;
18102;SDS011;9178;51.120;6.192;2022-11-15T05:42:06;5.80;;;5.30;;
18102;SDS011;9178;51.120;6.192;2022-11-15T05:44:35;5.73;;;5.13;;
18102;SDS011;9178;51.120;6.192;2022-11-15T05:47:03;5.63;;;5.10;;
18102;SDS011;9178;51.120;6.192;2022-11-15T05:49:34;7.33;;;5.40;;
18102;SDS011;9178;51.120;6.192;2022-11-15T05:52:04;5.63;;;4.57;;
18102;SDS011;9178;51.120;6.192;2022-11-15T05:54:33;4.27;;;3.47;;
18102;SDS011;9178;51.120;6.192;2022-11-15T05:57:02;4.37;;;3.93;;
18102;SDS011;9178;51.120;6.192;2022-11-15T05:59:32;4.53;;;4.13;;
18102;SDS011;9178;51.120;6.192;2022-11-15T06:02:00;5.13;;;3.80;;
18102;SDS011;9178;51.120;6.192;2022-11-15T06:04:27;5.00;;;3.77;;
18102;SDS011;9178;51.120;6.192;2022-11-15T06:06:54;3.37;;;3.00;;
18102;SDS011;9178;51.120;6.192;2022-11-15T06:09:21;3.87;;;3.53;;
18102;SDS011;9178;51.120;6.192;2022-11-15T06:11:48;3.47;;;3.17;;
18102;SDS011;9178;51.120;6.192;2022-11-15T06:14:14;4.10;;;2.83;;
18102;SDS011;9178;51.120;6.192;2022-11-15T06:16:43;3.73;;;3.00;;
18102;SDS011;9178;51.120;6.192;2022-11-15T06:19:09;5.00;;;2.63;;
18102;SDS011;9178;51.120;6.192;2022-11-15T06:21:37;2.80;;;2.00;;
18102;SDS011;9178;51.120;6.192;2022-11-15T06:24:04;3.87;;;2.20;;
18102;SDS011;9178;51.120;6.192;2022-11-15T06:26:32;2.30;;;2.10;;
18102;SDS011;9178;51.120;6.192;2022-11-15T06:28:59;1.90;;;1.80;;
18102;SDS011;9178;51.120;6.192;2022-11-15T06:31:26;3.07;;;2.13;;
18102;SDS011;9178;51.120;6.192;2022-11-15T06:33:54;2.83;;;2.00;;
18102;SDS011;9178;51.120;6.192;2022-11-15T06:36:20;3.50;;;2.10;;
18102;SDS011;9178;51.120;6.192;2022-11-15T06:38:47;2.10;;;1.87;;
18102;SDS011;9178;51.120;6.192;2022-11-15T06:41:14;1.93;;;1.70;;
18102;SDS011;9178;51.120;6.192;2022-11-15T06:43:41;1.93;;;1.50;;
18102;SDS011;9178;51.120;6.192;2022-11-15T06:46:08;1.37;;;1.10;;
18102;SDS011;9178;51.120;6.192;2022-11-15T06:48:35;1.77;;;1.20;;
18102;SDS011;9178;51.120;6.192;2022-11-15T06:51:04;1.30;;;1.10;;
18102;SDS011;9178;51.120;6.192;2022-11-15T06:53:32;1.30;;;1.00;;
18102;SDS011;9178;51.120;6.192;2022-11-15T06:56:00;0.80;;;0.80;;
18102;SDS011;9178;51.120;6.192;2022-11-15T06:58:27;2.57;;;0.90;;
18102;SDS011;9178;51.120;6.192;2022-11-15T07:00:57;0.70;;;0.70;;
18102;SDS011;9178;51.120;6.192;2022-11-15T07:03:25;2.10;;;0.90;;
18102;SDS011;9178;51.120;6.192;2022-11-15T07:05:52;1.97;;;0.97;;
18102;SDS011;9178;51.120;6.192;2022-11-15T07:08:21;0.90;;;0.90;;
18102;SDS011;9178;51.120;6.192;2022-11-15T07:10:48;2.30;;;1.03;;
18102;SDS011;9178;51.120;6.192;2022-11-15T07:13:15;1.90;;;1.27;;
18102;SDS011;9178;51.120;6.192;2022-11-15T07:15:42;3.43;;;1.20;;
18102;SDS011;9178;51.120;6.192;2022-11-15T07:18:09;1.40;;;1.30;;
18102;SDS011;9178;51.120;6.192;2022-11-15T07:20:36;1.30;;;1.20;;
18102;SDS011;9178;51.120;6.192;2022-11-15T07:23:04;1.40;;;1.00;;
18102;SDS011;9178;51.120;6.192;2022-11-15T07:25:33;2.03;;;1.10;;
18102;SDS011;9178;51.120;6.192;2022-11-15T07:28:00;2.43;;;1.17;;
18102;SDS011;9178;51.120;6.192;2022-11-15T07:30:28;2.30;;;1.37;;
18102;SDS011;9178;51.120;6.192;2022-11-15T07:32:55;4.00;;;1.00;;
18102;SDS011;9178;51.120;6.192;2022-11-15T07:35:22;1.53;;;0.83;;
18102;SDS011;9178;51.120;6.192;2022-11-15T07:37:53;1.30;;;1.17;;
18102;SDS011;9178;51.120;6.192;2022-11-15T07:40:21;2.50;;;1.10;;
18102;SDS011;9178;51.120;6.192;2022-11-15T07:42:49;2.40;;;1.30;;
18102;SDS011;9178;51.120;6.192;2022-11-15T07:45:19;3.93;;;1.07;;
18102;SDS011;9178;51.120;6.192;2022-11-15T07:47:45;3.70;;;1.23;;
18102;SDS011;9178;51.120;6.192;2022-11-15T07:50:13;1.23;;;1.13;;
18102;SDS011;9178;51.120;6.192;2022-11-15T07:52:39;1.97;;;1.40;;
18102;SDS011;9178;51.120;6.192;2022-11-15T07:55:07;2.30;;;1.20;;
18102;SDS011;9178;51.120;6.192;2022-11-15T07:57:34;3.23;;;1.37;;
18102;SDS011;9178;51.120;6.192;2022-11-15T08:00:02;1.57;;;1.10;;
18102;SDS011;9178;51.120;6.192;2022-11-15T08:02:30;1.27;;;1.10;;
18102;SDS011;9178;51.120;6.192;2022-11-15T08:04:57;1.50;;;1.30;;
18102;SDS011;9178;51.120;6.192;2022-11-15T08:07:24;1.10;;;1.00;;
18102;SDS011;9178;51.120;6.192;2022-11-15T08:09:50;1.67;;;1.20;;
18102;SDS011;9178;51.120;6.192;2022-11-15T08:12:17;2.37;;;1.50;;
18102;SDS011;9178;51.120;6.192;2022-11-15T08:14:45;2.03;;;1.10;;
18102;SDS011;9178;51.120;6.192;2022-11-15T08:17:13;2.10;;;1.10;;
18102;SDS011;9178;51.120;6.192;2022-11-15T08:19:39;1.37;;;1.27;;
18102;SDS011;9178;51.120;6.192;2022-11-15T08:22:06;2.70;;;1.07;;
18102;SDS011;9178;51.120;6.192;2022-11-15T08:24:33;2.77;;;1.50;;
18102;SDS011;9178;51.120;6.192;2022-11-15T08:27:00;1.70;;;1.60;;
18102;SDS011;9178;51.120;6.192;2022-11-15T08:29:27;1.70;;;1.60;;
18102;SDS011;9178;51.120;6.192;2022-11-15T08:31:54;2.73;;;1.80;;
18102;SDS011;9178;51.120;6.192;2022-11-15T08:34:22;1.70;;;1.10;;
18102;SDS011;9178;51.120;6.192;2022-11-15T08:36:49;0.97;;;0.97;;
18102;SDS011;9178;51.120;6.192;2022-11-15T08:39:16;1.30;;;1.10;;
18102;SDS011;9178;51.120;6.192;2022-11-15T08:41:42;1.20;;;1.10;;
18102;SDS011;9178;51.120;6.192;2022-11-15T08:44:09;2.40;;;1.90;;
18102;SDS011;9178;51.120;6.192;2022-11-15T08:46:36;2.03;;;1.30;;
18102;SDS011;9178;51.120;6.192;2022-11-15T08:49:03;1.10;;;0.80;;
18102;SDS011;9178;51.120;6.192;2022-11-15T08:51:31;2.17;;;0.83;;
18102;SDS011;9178;51.120;6.192;2022-11-15T08:53:58;2.67;;;0.83;;
18102;SDS011;9178;51.120;6.192;2022-11-15T08:56:25;3.43;;;0.70;;
18102;SDS011;9178;51.120;6.192;2022-11-15T08:58:51;2.80;;;0.60;;
18102;SDS011;9178;51.120;6.192;2022-11-15T09:01:19;1.07;;;0.80;;
18102;SDS011;9178;51.120;6.192;2022-11-15T09:03:47;0.93;;;0.63;;
18102;SDS011;9178;51.120;6.192;2022-11-15T09:06:14;1.47;;;0.73;;
18102;SDS011;9178;51.120;6.192;2022-11-15T09:08:42;1.70;;;0.80;;
18102;SDS011;9178;51.120;6.192;2022-11-15T09:11:09;1.77;;;0.60;;
18102;SDS011;9178;51.120;6.192;2022-11-15T09:13:37;2.60;;;0.70;;
18102;SDS011;9178;51.120;6.192;2022-11-15T09:16:04;1.23;;;0.70;;
18102;SDS011;9178;51.120;6.192;2022-11-15T09:18:31;2.93;;;0.83;;
18102;SDS011;9178;51.120;6.192;2022-11-15T09:20:59;2.17;;;0.90;;
18102;SDS011;9178;51.120;6.192;2022-11-15T09:23:27;3.43;;;1.00;;
18102;SDS011;9178;51.120;6.192;2022-11-15T09:25:59;1.17;;;0.63;;
18102;SDS011;9178;51.120;6.192;2022-11-15T09:28:27;1.50;;;0.57;;
18102;SDS011;9178;51.120;6.192;2022-11-15T09:30:55;1.40;;;0.70;;
18102;SDS011;9178;51.120;6.192;2022-11-15T09:33:24;2.17;;;0.60;;
18102;SDS011;9178;51.120;6.192;2022-11-15T09:35:50;3.30;;;0.77;;
18102;SDS011;9178;51.120;6.192;2022-11-15T09:38:17;1.53;;;0.60;;
18102;SDS011;9178;51.120;6.192;2022-11-15T09:40:44;1.70;;;0.63;;
18102;SDS011;9178;51.120;6.192;2022-11-15T09:43:25;4.33;;;0.83;;
18102;SDS011;9178;51.120;6.192;2022-11-15T09:46:03;3.13;;;1.00;;
18102;SDS011;9178;51.120;6.192;2022-11-15T09:48:50;2.50;;;0.50;;
18102;SDS011;9178;51.120;6.192;2022-11-15T09:51:25;1.93;;;0.87;;
18102;SDS011;9178;51.120;6.192;2022-11-15T09:53:57;1.07;;;0.67;;
18102;SDS011;9178;51.120;6.192;2022-11-15T09:56:29;2.50;;;0.70;;
18102;SDS011;9178;51.120;6.192;2022-11-15T09:59:01;1.47;;;0.87;;
18102;SDS011;9178;51.120;6.192;2022-11-15T10:01:39;3.73;;;0.83;;
18102;SDS011;9178;51.120;6.192;2022-11-15T10:04:12;3.00;;;0.77;;
18102;SDS011;9178;51.120;6.192;2022-11-15T10:06:40;2.63;;;0.70;;
18102;SDS011;9178;51.120;6.192;2022-11-15T10:09:13;2.00;;;0.80;;
18102;SDS011;9178;51.120;6.192;2022-11-15T10:11:43;1.17;;;0.63;;
18102;SDS011;9178;51.120;6.192;2022-11-15T10:14:13;2.53;;;0.80;;
18102;SDS011;9178;51.120;6.192;2022-11-15T10:19:47;1.97;;;0.77;;
18102;SDS011;9178;51.120;6.192;2022-11-15T10:22:26;1.37;;;0.70;;
18102;SDS011;9178;51.120;6.192;2022-11-15T10:25:00;1.60;;;0.57;;
18102;SDS011;9178;51.120;6.192;2022-11-15T10:27:42;1.40;;;0.60;;
18102;SDS011;9178;51.120;6.192;2022-11-15T10:30:13;1.37;;;0.50;;
18102;SDS011;9178;51.120;6.192;2022-11-15T10:32:42;1.50;;;0.50;;
18102;SDS011;9178;51.120;6.192;2022-11-15T10:35:17;2.15;;;0.47;;
18102;SDS011;9178;51.120;6.192;2022-11-15T10:37:46;3.70;;;0.60;;
18102;SDS011;9178;51.120;6.192;2022-11-15T10:40:17;1.53;;;0.60;;
18102;SDS011;9178;51.120;6.192;2022-11-15T10:42:47;1.37;;;0.60;;
18102;SDS011;9178;51.120;6.192;2022-11-15T10:45:26;1.60;;;0.70;;
18102;SDS011;9178;51.120;6.192;2022-11-15T10:47:55;1.63;;;0.60;;
18102;SDS011;9178;51.120;6.192;2022-11-15T10:50:49;0.97;;;0.50;;
18102;SDS011;9178;51.120;6.192;2022-11-15T10:53:19;1.63;;;0.50;;
18102;SDS011;9178;51.120;6.192;2022-11-15T10:55:50;0.93;;;0.50;;
18102;SDS011;9178;51.120;6.192;2022-11-15T10:58:20;2.77;;;0.63;;
18102;SDS011;9178;51.120;6.192;2022-11-15T11:00:55;1.27;;;0.60;;
18102;SDS011;9178;51.120;6.192;2022-11-15T11:03:27;1.77;;;0.50;;
18102;SDS011;9178;51.120;6.192;2022-11-15T11:06:05;1.80;;;0.60;;
18102;SDS011;9178;51.120;6.192;2022-11-15T11:08:35;0.90;;;0.30;;
18102;SDS011;9178;51.120;6.192;2022-11-15T11:11:04;2.03;;;0.43;;
18102;SDS011;9178;51.120;6.192;2022-11-15T11:13:32;0.90;;;0.40;;
18102;SDS011;9178;51.120;6.192;2022-11-15T11:16:17;3.17;;;0.70;;
18102;SDS011;9178;51.120;6.192;2022-11-15T11:19:00;1.50;;;0.80;;
18102;SDS011;9178;51.120;6.192;2022-11-15T11:21:38;2.47;;;0.50;;
18102;SDS011;9178;51.120;6.192;2022-11-15T11:24:13;2.10;;;0.57;;
18102;SDS011;9178;51.120;6.192;2022-11-15T11:26:46;2.23;;;0.50;;
18102;SDS011;9178;51.120;6.192;2022-11-15T11:29:30;2.03;;;0.50;;
18102;SDS011;9178;51.120;6.192;2022-11-15T11:32:13;1.57;;;0.60;;
18102;SDS011;9178;51.120;6.192;2022-11-15T11:34:55;0.83;;;0.40;;
18102;SDS011;9178;51.120;6.192;2022-11-15T11:37:33;2.10;;;0.70;;
18102;SDS011;9178;51.120;6.192;2022-11-15T11:40:10;3.63;;;0.50;;
18102;SDS011;9178;51.120;6.192;2022-11-15T11:42:50;1.53;;;0.50;;
18102;SDS011;9178;51.120;6.192;2022-11-15T11:45:26;1.70;;;0.63;;
18102;SDS011;9178;51.120;6.192;2022-11-15T11:48:18;1.07;;;0.50;;
18102;SDS011;9178;51.120;6.192;2022-11-15T11:50:52;1.93;;;0.40;;
18102;SDS011;9178;51.120;6.192;2022-11-15T11:53:35;1.77;;;0.73;;
18102;SDS011;9178;51.120;6.192;2022-11-15T11:56:14;2.10;;;0.60;;
18102;SDS011;9178;51.120;6.192;2022-11-15T11:58:46;3.33;;;0.43;;
18102;SDS011;9178;51.120;6.192;2022-11-15T12:01:17;1.07;;;0.30;;
18102;SDS011;9178;51.120;6.192;2022-11-15T12:03:51;2.07;;;0.50;;
18102;SDS011;9178;51.120;6.192;2022-11-15T12:06:24;2.30;;;0.50;;
18102;SDS011;9178;51.120;6.192;2022-11-15T12:08:58;1.23;;;0.30;;
18102;SDS011;9178;51.120;6.192;2022-11-15T12:11:29;1.37;;;0.47;;
18102;SDS011;9178;51.120;6.192;2022-11-15T12:14:03;0.80;;;0.40;;
18102;SDS011;9178;51.120;6.192;2022-11-15T12:16:42;1.03;;;0.67;;
18102;SDS011;9178;51.120;6.192;2022-11-15T12:19:10;1.47;;;0.40;;
18102;SDS011;9178;51.120;6.192;2022-11-15T12:21:39;3.77;;;0.50;;
18102;SDS011;9178;51.120;6.192;2022-11-15T12:24:14;0.80;;;0.77;;
18102;SDS011;9178;51.120;6.192;2022-11-15T12:26:47;2.43;;;0.73;;
18102;SDS011;9178;51.120;6.192;2022-11-15T12:29:18;1.93;;;0.57;;
18102;SDS011;9178;51.120;6.192;2022-11-15T12:31:48;2.23;;;0.40;;
18102;SDS011;9178;51.120;6.192;2022-11-15T12:40:27;1.07;;;0.47;;
18102;SDS011;9178;51.120;6.192;2022-11-15T12:42:57;3.67;;;0.70;;
18102;SDS011;9178;51.120;6.192;2022-11-15T12:45:29;1.90;;;0.60;;
18102;SDS011;9178;51.120;6.192;2022-11-15T12:51:04;1.80;;;0.70;;
18102;SDS011;9178;51.120;6.192;2022-11-15T12:53:31;1.40;;;0.50;;
18102;SDS011;9178;51.120;6.192;2022-11-15T12:56:17;5.00;;;0.50;;
18102;SDS011;9178;51.120;6.192;2022-11-15T12:58:48;2.87;;;0.50;;
18102;SDS011;9178;51.120;6.192;2022-11-15T13:04:24;1.27;;;0.53;;
18102;SDS011;9178;51.120;6.192;2022-11-15T13:06:54;6.97;;;1.10;;
18102;SDS011;9178;51.120;6.192;2022-11-15T13:15:34;2.50;;;0.60;;
18102;SDS011;9178;51.120;6.192;2022-11-15T13:18:25;3.90;;;1.00;;
18102;SDS011;9178;51.120;6.192;2022-11-15T13:21:04;2.43;;;1.00;;
18102;SDS011;9178;51.120;6.192;2022-11-15T13:24:04;2.50;;;0.90;;
18102;SDS011;9178;51.120;6.192;2022-11-15T13:26:31;4.17;;;1.00;;
18102;SDS011;9178;51.120;6.192;2022-11-15T13:28:57;4.10;;;0.70;;
18102;SDS011;9178;51.120;6.192;2022-11-15T13:31:27;2.47;;;0.80;;
18102;SDS011;9178;51.120;6.192;2022-11-15T13:33:57;0.70;;;0.50;;
18102;SDS011;9178;51.120;6.192;2022-11-15T13:36:27;2.13;;;0.80;;
18102;SDS011;9178;51.120;6.192;2022-11-15T13:38:58;4.07;;;0.73;;
18102;SDS011;9178;51.120;6.192;2022-11-15T13:41:29;3.30;;;0.80;;
18102;SDS011;9178;51.120;6.192;2022-11-15T13:43:58;1.80;;;0.40;;
18102;SDS011;9178;51.120;6.192;2022-11-15T13:46:26;1.57;;;0.70;;
18102;SDS011;9178;51.120;6.192;2022-11-15T13:48:55;2.67;;;0.83;;
18102;SDS011;9178;51.120;6.192;2022-11-15T13:51:25;1.83;;;0.50;;
18102;SDS011;9178;51.120;6.192;2022-11-15T13:54:01;1.50;;;0.50;;
18102;SDS011;9178;51.120;6.192;2022-11-15T13:56:40;1.77;;;0.40;;
18102;SDS011;9178;51.120;6.192;2022-11-15T13:59:10;2.73;;;0.80;;
18102;SDS011;9178;51.120;6.192;2022-11-15T14:01:43;5.73;;;0.97;;
18102;SDS011;9178;51.120;6.192;2022-11-15T14:04:11;4.40;;;0.83;;
18102;SDS011;9178;51.120;6.192;2022-11-15T14:06:44;4.53;;;1.13;;
18102;SDS011;9178;51.120;6.192;2022-11-15T14:12:19;3.70;;;0.70;;
18102;SDS011;9178;51.120;6.192;2022-11-15T14:14:50;3.87;;;0.70;;
18102;SDS011;9178;51.120;6.192;2022-11-15T14:17:19;3.20;;;0.60;;
18102;SDS011;9178;51.120;6.192;2022-11-15T14:19:48;2.60;;;0.80;;
18102;SDS011;9178;51.120;6.192;2022-11-15T14:22:17;1.50;;;0.70;;
18102;SDS011;9178;51.120;6.192;2022-11-15T14:24:47;4.63;;;0.83;;
18102;SDS011;9178;51.120;6.192;2022-11-15T14:27:31;4.73;;;0.87;;
18102;SDS011;9178;51.120;6.192;2022-11-15T14:29:59;3.47;;;0.90;;
18102;SDS011;9178;51.120;6.192;2022-11-15T14:32:26;3.00;;;0.90;;
18102;SDS011;9178;51.120;6.192;2022-11-15T14:34:55;6.10;;;0.90;;
18102;SDS011;9178;51.120;6.192;2022-11-15T14:37:24;3.10;;;0.80;;
18102;SDS011;9178;51.120;6.192;2022-11-15T14:39:52;5.00;;;0.80;;
18102;SDS011;9178;51.120;6.192;2022-11-15T14:42:19;5.77;;;0.90;;
18102;SDS011;9178;51.120;6.192;2022-11-15T14:44:48;12.47;;;5.40;;
18102;SDS011;9178;51.120;6.192;2022-11-15T14:47:16;3.17;;;1.40;;
18102;SDS011;9178;51.120;6.192;2022-11-15T14:49:43;4.00;;;2.03;;
18102;SDS011;9178;51.120;6.192;2022-11-15T14:52:16;2.60;;;0.70;;
18102;SDS011;9178;51.120;6.192;2022-11-15T14:54:50;1.20;;;0.70;;
18102;SDS011;9178;51.120;6.192;2022-11-15T14:57:17;1.70;;;0.93;;
18102;SDS011;9178;51.120;6.192;2022-11-15T14:59:44;2.50;;;0.80;;
18102;SDS011;9178;51.120;6.192;2022-11-15T15:02:15;1.00;;;0.90;;
18102;SDS011;9178;51.120;6.192;2022-11-15T15:04:44;3.03;;;0.80;;
18102;SDS011;9178;51.120;6.192;2022-11-15T15:07:10;2.30;;;0.77;;
18102;SDS011;9178;51.120;6.192;2022-11-15T15:09:37;4.67;;;1.00;;
18102;SDS011;9178;51.120;6.192;2022-11-15T15:12:04;3.67;;;0.90;;
18102;SDS011;9178;51.120;6.192;2022-11-15T15:14:38;1.77;;;1.50;;
18102;SDS011;9178;51.120;6.192;2022-11-15T15:17:04;1.47;;;1.00;;
18102;SDS011;9178;51.120;6.192;2022-11-15T15:19:33;1.30;;;1.20;;
18102;SDS011;9178;51.120;6.192;2022-11-15T15:22:00;1.00;;;1.00;;
18102;SDS011;9178;51.120;6.192;2022-11-15T15:24:26;2.03;;;1.10;;
18102;SDS011;9178;51.120;6.192;2022-11-15T15:26:53;2.27;;;1.17;;
18102;SDS011;9178;51.120;6.192;2022-11-15T15:29:20;2.87;;;0.97;;
18102;SDS011;9178;51.120;6.192;2022-11-15T15:31:47;3.33;;;0.80;;
18102;SDS011;9178;51.120;6.192;2022-11-15T15:34:13;2.83;;;1.13;;
18102;SDS011;9178;51.120;6.192;2022-11-15T15:36:42;1.70;;;1.00;;
18102;SDS011;9178;51.120;6.192;2022-11-15T15:39:09;4.03;;;1.20;;
18102;SDS011;9178;51.120;6.192;2022-11-15T15:41:37;2.60;;;1.40;;
18102;SDS011;9178;51.120;6.192;2022-11-15T15:44:03;3.37;;;1.40;;